sensor_id;sensor_type;location;lat;lon;timestamp;pressure;altitude;pressure_sealevel;temperature;humidity
70445;BME280;57902;49.638;11.070;2023-05-08T00:00:56;98651.97;;;12.56;72.44
70445;BME280;57902;49.638;11.070;2023-05-08T00:03:24;98653.84;;;12.51;73.12
70445;BME280;57902;49.638;11.070;2023-05-08T00:05:52;98648.78;;;12.48;73.89
70445;BME280;57902;49.638;11.070;2023-05-08T00:08:21;98649.06;;;12.38;75.24
70445;BME280;57902;49.638;11.070;2023-05-08T00:10:48;98649.28;;;12.32;76.61
70445;BME280;57902;49.638;11.070;2023-05-08T00:13:14;98656.31;;;12.27;77.36
70445;BME280;57902;49.638;11.070;2023-05-08T00:15:41;98654.81;;;12.20;78.03
70445;BME280;57902;49.638;11.070;2023-05-08T00:18:08;98654.81;;;12.20;78.27
70445;BME280;57902;49.638;11.070;2023-05-08T00:20:34;98655.66;;;12.20;77.05
70445;BME280;57902;49.638;11.070;2023-05-08T00:23:01;98659.28;;;12.15;77.61
70445;BME280;57902;49.638;11.070;2023-05-08T00:25:27;98655.13;;;12.09;79.22
70445;BME280;57902;49.638;11.070;2023-05-08T00:27:53;98651.84;;;12.04;79.55
70445;BME280;57902;49.638;11.070;2023-05-08T00:30:20;98652.78;;;12.01;78.03
70445;BME280;57902;49.638;11.070;2023-05-08T00:32:47;98658.75;;;12.03;76.21
70445;BME280;57902;49.638;11.070;2023-05-08T00:35:14;98663.78;;;12.08;75.59
70445;BME280;57902;49.638;11.070;2023-05-08T00:37:40;98655.19;;;12.07;75.26
70445;BME280;57902;49.638;11.070;2023-05-08T00:40:09;98648.50;;;12.00;76.06
70445;BME280;57902;49.638;11.070;2023-05-08T00:42:37;98653.00;;;11.92;75.63
70445;BME280;57902;49.638;11.070;2023-05-08T00:45:04;98653.00;;;11.92;75.42
70445;BME280;57902;49.638;11.070;2023-05-08T00:47:30;98652.00;;;11.98;74.41
70445;BME280;57902;49.638;11.070;2023-05-08T00:49:58;98653.06;;;11.90;75.86
70445;BME280;57902;49.638;11.070;2023-05-08T00:52:27;98650.38;;;11.95;75.20
70445;BME280;57902;49.638;11.070;2023-05-08T00:54:55;98653.88;;;11.93;74.95
70445;BME280;57902;49.638;11.070;2023-05-08T00:57:21;98649.56;;;11.93;73.96
70445;BME280;57902;49.638;11.070;2023-05-08T00:59:48;98649.56;;;11.93;74.02
70445;BME280;57902;49.638;11.070;2023-05-08T01:02:15;98658.94;;;11.97;73.06
70445;BME280;57902;49.638;11.070;2023-05-08T01:04:42;98656.34;;;11.97;72.22
70445;BME280;57902;49.638;11.070;2023-05-08T01:07:12;98656.53;;;11.89;71.45
70445;BME280;57902;49.638;11.070;2023-05-08T01:09:38;98655.81;;;11.84;71.84
70445;BME280;57902;49.638;11.070;2023-05-08T01:12:32;98647.41;;;11.78;71.53
70445;BME280;57902;49.638;11.070;2023-05-08T01:15:12;98658.59;;;11.78;72.52
70445;BME280;57902;49.638;11.070;2023-05-08T01:18:04;98650.78;;;11.80;72.49
70445;BME280;57902;49.638;11.070;2023-05-08T01:20:46;98668.06;;;11.78;72.17
70445;BME280;57902;49.638;11.070;2023-05-08T01:26:31;98679.16;;;11.81;73.67
70445;BME280;57902;49.638;11.070;2023-05-08T01:32:26;98680.81;;;11.84;73.72
70445;BME280;57902;49.638;11.070;2023-05-08T01:37:46;98681.09;;;11.75;75.01
70445;BME280;57902;49.638;11.070;2023-05-08T01:40:32;98682.06;;;11.70;74.27
70445;BME280;57902;49.638;11.070;2023-05-08T01:43:09;98684.53;;;11.73;74.47
70445;BME280;57902;49.638;11.070;2023-05-08T01:45:39;98682.06;;;11.70;74.64
70445;BME280;57902;49.638;11.070;2023-05-08T01:48:14;98686.63;;;11.61;74.50
70445;BME280;57902;49.638;11.070;2023-05-08T01:50:48;98686.56;;;11.62;73.92
70445;BME280;57902;49.638;11.070;2023-05-08T01:53:41;98682.22;;;11.64;73.88
70445;BME280;57902;49.638;11.070;2023-05-08T01:56:11;98684.91;;;11.60;72.71
70445;BME280;57902;49.638;11.070;2023-05-08T01:58:40;98688.34;;;11.60;72.68
70445;BME280;57902;49.638;11.070;2023-05-08T02:01:08;98688.28;;;11.63;72.02
70445;BME280;57902;49.638;11.070;2023-05-08T02:03:36;98691.06;;;11.55;74.03
70445;BME280;57902;49.638;11.070;2023-05-08T02:06:07;98692.97;;;11.49;73.41
70445;BME280;57902;49.638;11.070;2023-05-08T02:08:35;98691.94;;;11.54;72.99
70445;BME280;57902;49.638;11.070;2023-05-08T02:11:03;98689.50;;;11.50;74.17
70445;BME280;57902;49.638;11.070;2023-05-08T02:13:32;98697.25;;;11.50;75.55
70445;BME280;57902;49.638;11.070;2023-05-08T02:16:01;98693.00;;;11.47;74.07
70445;BME280;57902;49.638;11.070;2023-05-08T02:18:28;98693.03;;;11.46;75.21
70445;BME280;57902;49.638;11.070;2023-05-08T02:20:57;98694.81;;;11.44;74.78
70445;BME280;57902;49.638;11.070;2023-05-08T02:23:25;98698.38;;;11.40;75.24
70445;BME280;57902;49.638;11.070;2023-05-08T02:25:53;98702.59;;;11.42;74.71
70445;BME280;57902;49.638;11.070;2023-05-08T02:28:21;98699.13;;;11.43;74.82
70445;BME280;57902;49.638;11.070;2023-05-08T02:30:49;98698.38;;;11.40;75.74
70445;BME280;57902;49.638;11.070;2023-05-08T02:33:17;98705.38;;;11.34;75.25
70445;BME280;57902;49.638;11.070;2023-05-08T02:35:46;98706.38;;;11.29;75.58
70445;BME280;57902;49.638;11.070;2023-05-08T02:38:16;98707.25;;;11.29;76.07
70445;BME280;57902;49.638;11.070;2023-05-08T02:40:47;98713.25;;;11.30;76.33
70445;BME280;57902;49.638;11.070;2023-05-08T02:43:15;98714.00;;;11.33;76.07
70445;BME280;57902;49.638;11.070;2023-05-08T02:45:47;98715.78;;;11.31;76.49
70445;BME280;57902;49.638;11.070;2023-05-08T02:48:22;98714.97;;;11.29;76.21
70445;BME280;57902;49.638;11.070;2023-05-08T02:51:09;98718.28;;;11.34;75.76
70445;BME280;57902;49.638;11.070;2023-05-08T02:53:45;98714.91;;;11.32;76.60
70445;BME280;57902;49.638;11.070;2023-05-08T02:58:56;98716.69;;;11.29;75.12
70445;BME280;57902;49.638;11.070;2023-05-08T03:01:30;98717.69;;;11.25;76.19
70445;BME280;57902;49.638;11.070;2023-05-08T03:04:02;98720.28;;;11.25;76.73
70445;BME280;57902;49.638;11.070;2023-05-08T03:06:35;98722.03;;;11.23;76.38
70445;BME280;57902;49.638;11.070;2023-05-08T03:09:04;98719.31;;;11.27;75.58
70445;BME280;57902;49.638;11.070;2023-05-08T03:11:40;98723.72;;;11.24;76.83
70445;BME280;57902;49.638;11.070;2023-05-08T03:14:13;98725.38;;;11.26;76.25
70445;BME280;57902;49.638;11.070;2023-05-08T03:16:44;98717.69;;;11.23;75.98
70445;BME280;57902;49.638;11.070;2023-05-08T03:19:21;98719.31;;;11.27;75.80
70445;BME280;57902;49.638;11.070;2023-05-08T03:21:50;98716.03;;;11.22;76.22
70445;BME280;57902;49.638;11.070;2023-05-08T03:24:21;98717.84;;;11.17;76.41
70445;BME280;57902;49.638;11.070;2023-05-08T03:26:50;98719.41;;;11.24;75.22
70445;BME280;57902;49.638;11.070;2023-05-08T03:29:17;98722.19;;;11.16;75.87
70445;BME280;57902;49.638;11.070;2023-05-08T03:31:45;98726.66;;;11.08;76.98
70445;BME280;57902;49.638;11.070;2023-05-08T03:34:13;98722.47;;;11.06;77.58
70445;BME280;57902;49.638;11.070;2023-05-08T03:36:41;98720.72;;;11.06;76.99
70445;BME280;57902;49.638;11.070;2023-05-08T03:39:08;98729.25;;;11.08;77.43
70445;BME280;57902;49.638;11.070;2023-05-08T03:41:34;98723.19;;;11.11;76.97
70445;BME280;57902;49.638;11.070;2023-05-08T03:44:02;98725.84;;;11.08;77.13
70445;BME280;57902;49.638;11.070;2023-05-08T03:46:30;98721.47;;;11.10;76.68
70445;BME280;57902;49.638;11.070;2023-05-08T03:48:57;98723.97;;;11.14;76.25
70445;BME280;57902;49.638;11.070;2023-05-08T03:51:25;98727.25;;;11.19;76.66
70445;BME280;57902;49.638;11.070;2023-05-08T03:53:53;98725.53;;;11.20;76.18
70445;BME280;57902;49.638;11.070;2023-05-08T03:56:20;98724.72;;;11.18;76.73
70445;BME280;57902;49.638;11.070;2023-05-08T04:01:37;98730.75;;;11.17;76.52
70445;BME280;57902;49.638;11.070;2023-05-08T04:04:18;98728.25;;;11.14;76.73
70445;BME280;57902;49.638;11.070;2023-05-08T04:06:50;98720.47;;;11.15;76.36
70445;BME280;57902;49.638;11.070;2023-05-08T04:12:21;98731.84;;;11.08;76.74
70445;BME280;57902;49.638;11.070;2023-05-08T04:14:55;98730.13;;;11.09;76.59
70445;BME280;57902;49.638;11.070;2023-05-08T04:17:47;98735.16;;;11.13;76.67
70445;BME280;57902;49.638;11.070;2023-05-08T04:20:23;98732.50;;;11.16;76.93
70445;BME280;57902;49.638;11.070;2023-05-08T04:22:53;98731.59;;;11.19;77.25
70445;BME280;57902;49.638;11.070;2023-05-08T04:25:20;98730.69;;;11.20;76.78
70445;BME280;57902;49.638;11.070;2023-05-08T04:27:47;98734.13;;;11.20;77.68
70445;BME280;57902;49.638;11.070;2023-05-08T04:30:16;98733.97;;;11.27;77.07
70445;BME280;57902;49.638;11.070;2023-05-08T04:32:44;98739.28;;;11.20;77.02
70445;BME280;57902;49.638;11.070;2023-05-08T04:35:12;98737.81;;;11.10;77.74
70445;BME280;57902;49.638;11.070;2023-05-08T04:37:40;98742.44;;;11.32;76.11
70445;BME280;57902;49.638;11.070;2023-05-08T04:40:09;98744.13;;;11.33;77.04
70445;BME280;57902;49.638;11.070;2023-05-08T04:42:36;98748.34;;;11.37;77.06
70445;BME280;57902;49.638;11.070;2023-05-08T04:45:05;98749.09;;;11.41;76.75
70445;BME280;57902;49.638;11.070;2023-05-08T04:47:32;98748.28;;;11.38;76.93
70445;BME280;57902;49.638;11.070;2023-05-08T04:49:58;98751.63;;;11.44;76.21
70445;BME280;57902;49.638;11.070;2023-05-08T04:52:27;98756.69;;;11.47;75.85
70445;BME280;57902;49.638;11.070;2023-05-08T04:54:54;98754.19;;;11.44;75.81
70445;BME280;57902;49.638;11.070;2023-05-08T04:57:20;98757.78;;;11.38;76.75
70445;BME280;57902;49.638;11.070;2023-05-08T04:59:47;98759.38;;;11.42;76.03
70445;BME280;57902;49.638;11.070;2023-05-08T05:02:13;98759.09;;;11.54;76.12
70445;BME280;57902;49.638;11.070;2023-05-08T05:04:40;98760.78;;;11.55;77.33
70445;BME280;57902;49.638;11.070;2023-05-08T05:07:07;98765.50;;;11.72;75.59
70445;BME280;57902;49.638;11.070;2023-05-08T05:09:33;98772.19;;;11.80;75.06
70445;BME280;57902;49.638;11.070;2023-05-08T05:12:05;98775.50;;;11.85;74.21
70445;BME280;57902;49.638;11.070;2023-05-08T05:14:32;98774.47;;;11.90;75.15
70445;BME280;57902;49.638;11.070;2023-05-08T05:16:58;98780.56;;;11.89;73.59
70445;BME280;57902;49.638;11.070;2023-05-08T05:19:25;98783.09;;;11.91;74.04
70445;BME280;57902;49.638;11.070;2023-05-08T05:21:52;98779.31;;;12.04;74.23
70445;BME280;57902;49.638;11.070;2023-05-08T05:24:18;98781.72;;;12.11;73.12
70445;BME280;57902;49.638;11.070;2023-05-08T05:26:45;98783.34;;;12.15;71.70
70445;BME280;57902;49.638;11.070;2023-05-08T05:29:11;98782.44;;;12.16;72.04
70445;BME280;57902;49.638;11.070;2023-05-08T05:31:38;98781.91;;;12.34;70.61
70445;BME280;57902;49.638;11.070;2023-05-08T05:34:04;98780.38;;;12.27;70.30
70445;BME280;57902;49.638;11.070;2023-05-08T05:36:31;98781.91;;;12.34;70.87
70445;BME280;57902;49.638;11.070;2023-05-08T05:38:57;98780.25;;;12.62;69.07
70445;BME280;57902;49.638;11.070;2023-05-08T05:41:29;98789.09;;;12.83;69.35
70445;BME280;57902;49.638;11.070;2023-05-08T05:43:55;98786.28;;;12.90;68.03
70445;BME280;57902;49.638;11.070;2023-05-08T05:46:22;98788.09;;;13.15;67.49
70445;BME280;57902;49.638;11.070;2023-05-08T05:48:53;98788.56;;;13.28;67.78
70445;BME280;57902;49.638;11.070;2023-05-08T05:51:19;98787.25;;;13.68;65.35
70445;BME280;57902;49.638;11.070;2023-05-08T05:53:46;98797.47;;;13.98;63.56
70445;BME280;57902;49.638;11.070;2023-05-08T05:56:12;98793.66;;;14.08;63.12
70445;BME280;57902;49.638;11.070;2023-05-08T05:58:39;98797.41;;;13.99;63.53
70445;BME280;57902;49.638;11.070;2023-05-08T06:01:10;98793.59;;;14.33;63.07
70445;BME280;57902;49.638;11.070;2023-05-08T06:03:37;98796.06;;;14.37;62.87
70445;BME280;57902;49.638;11.070;2023-05-08T06:06:04;98801.31;;;14.11;62.57
70445;BME280;57902;49.638;11.070;2023-05-08T06:11:01;98802.66;;;14.22;61.74
70445;BME280;57902;49.638;11.070;2023-05-08T06:13:29;98805.75;;;14.31;62.77
70445;BME280;57902;49.638;11.070;2023-05-08T06:15:55;98805.81;;;14.30;61.99
70445;BME280;57902;49.638;11.070;2023-05-08T06:18:25;98808.63;;;14.24;62.50
70445;BME280;57902;49.638;11.070;2023-05-08T06:20:58;98804.44;;;14.20;61.80
70445;BME280;57902;49.638;11.070;2023-05-08T06:23:25;98817.88;;;14.07;63.67
70445;BME280;57902;49.638;11.070;2023-05-08T06:25:52;98809.03;;;14.13;63.55
70445;BME280;57902;49.638;11.070;2023-05-08T06:28:19;98803.09;;;14.09;63.27
70445;BME280;57902;49.638;11.070;2023-05-08T06:30:47;98804.44;;;14.20;62.82
70445;BME280;57902;49.638;11.070;2023-05-08T06:33:14;98804.19;;;14.27;62.28
70445;BME280;57902;49.638;11.070;2023-05-08T06:35:42;98799.50;;;14.37;63.09
70445;BME280;57902;49.638;11.070;2023-05-08T06:38:11;98805.22;;;14.47;62.02
70445;BME280;57902;49.638;11.070;2023-05-08T06:40:52;98812.28;;;14.67;61.27
70445;BME280;57902;49.638;11.070;2023-05-08T06:43:19;98801.22;;;14.62;61.80
70445;BME280;57902;49.638;11.070;2023-05-08T06:45:55;98797.13;;;14.78;61.42
70445;BME280;57902;49.638;11.070;2023-05-08T06:48:21;98799.50;;;15.07;61.04
70445;BME280;57902;49.638;11.070;2023-05-08T06:50:50;98804.44;;;15.35;60.04
70445;BME280;57902;49.638;11.070;2023-05-08T06:53:19;98799.38;;;15.52;58.68
70445;BME280;57902;49.638;11.070;2023-05-08T06:55:45;98793.94;;;16.00;58.68
70445;BME280;57902;49.638;11.070;2023-05-08T06:58:15;98796.31;;;16.44;56.03
70445;BME280;57902;49.638;11.070;2023-05-08T07:00:41;98800.31;;;16.32;56.29
70445;BME280;57902;49.638;11.070;2023-05-08T07:03:08;98795.91;;;16.53;55.86
70445;BME280;57902;49.638;11.070;2023-05-08T07:05:34;98807.94;;;16.56;55.88
70445;BME280;57902;49.638;11.070;2023-05-08T07:08:04;98809.38;;;17.19;53.09
70445;BME280;57902;49.638;11.070;2023-05-08T07:10:31;98797.66;;;17.27;52.91
70445;BME280;57902;49.638;11.070;2023-05-08T07:12:58;98807.34;;;17.43;54.42
70445;BME280;57902;49.638;11.070;2023-05-08T07:15:26;98802.91;;;17.08;53.89
70445;BME280;57902;49.638;11.070;2023-05-08T07:17:59;98803.19;;;17.21;53.74
70445;BME280;57902;49.638;11.070;2023-05-08T07:20:27;98802.34;;;17.56;52.79
70445;BME280;57902;49.638;11.070;2023-05-08T07:22:54;98809.34;;;17.90;51.85
70445;BME280;57902;49.638;11.070;2023-05-08T07:25:28;98807.56;;;17.73;52.22
70445;BME280;57902;49.638;11.070;2023-05-08T07:27:55;98809.41;;;17.89;51.95
70445;BME280;57902;49.638;11.070;2023-05-08T07:30:32;98806.41;;;17.79;52.94
70445;BME280;57902;49.638;11.070;2023-05-08T07:33:03;98805.41;;;17.46;54.04
70445;BME280;57902;49.638;11.070;2023-05-08T07:35:30;98807.03;;;17.84;53.49
70445;BME280;57902;49.638;11.070;2023-05-08T07:38:03;98810.50;;;18.02;51.45
70445;BME280;57902;49.638;11.070;2023-05-08T07:40:29;98811.84;;;17.39;53.55
70445;BME280;57902;49.638;11.070;2023-05-08T07:42:58;98806.38;;;17.26;53.76
70445;BME280;57902;49.638;11.070;2023-05-08T07:45:26;98805.97;;;17.71;52.95
70445;BME280;57902;49.638;11.070;2023-05-08T07:47:55;98817.91;;;17.40;54.06
70445;BME280;57902;49.638;11.070;2023-05-08T07:50:30;98809.56;;;17.33;53.35
70445;BME280;57902;49.638;11.070;2023-05-08T07:53:02;98810.22;;;17.19;54.20
70445;BME280;57902;49.638;11.070;2023-05-08T07:55:31;98808.44;;;17.02;56.23
70445;BME280;57902;49.638;11.070;2023-05-08T07:57:58;98803.06;;;16.86;55.29
70445;BME280;57902;49.638;11.070;2023-05-08T08:00:25;98810.25;;;16.81;55.66
70445;BME280;57902;49.638;11.070;2023-05-08T08:02:55;98803.97;;;16.85;56.15
70445;BME280;57902;49.638;11.070;2023-05-08T08:05:21;98809.84;;;16.90;55.82
70445;BME280;57902;49.638;11.070;2023-05-08T08:10:54;98816.66;;;17.12;55.79
70445;BME280;57902;49.638;11.070;2023-05-08T08:13:23;98814.97;;;17.11;56.31
70445;BME280;57902;49.638;11.070;2023-05-08T08:15:50;98818.84;;;17.02;54.38
70445;BME280;57902;49.638;11.070;2023-05-08T08:18:17;98809.63;;;16.95;56.11
70445;BME280;57902;49.638;11.070;2023-05-08T08:20:44;98818.47;;;17.10;54.80
70445;BME280;57902;49.638;11.070;2023-05-08T08:23:11;98808.16;;;16.89;54.82
70445;BME280;57902;49.638;11.070;2023-05-08T08:25:38;98816.16;;;16.66;56.14
70445;BME280;57902;49.638;11.070;2023-05-08T08:28:07;98822.94;;;16.70;57.31
70445;BME280;57902;49.638;11.070;2023-05-08T08:30:36;98822.63;;;16.76;56.64
70445;BME280;57902;49.638;11.070;2023-05-08T08:33:03;98819.34;;;16.53;57.10
70445;BME280;57902;49.638;11.070;2023-05-08T08:35:32;98812.88;;;16.43;58.04
70445;BME280;57902;49.638;11.070;2023-05-08T08:38:01;98822.06;;;16.69;56.92
70445;BME280;57902;49.638;11.070;2023-05-08T08:40:28;98822.41;;;16.61;56.43
70445;BME280;57902;49.638;11.070;2023-05-08T08:42:55;98827.56;;;16.82;55.71
70445;BME280;57902;49.638;11.070;2023-05-08T08:45:22;98820.53;;;16.65;56.25
70445;BME280;57902;49.638;11.070;2023-05-08T08:47:50;98817.94;;;16.46;57.45
70445;BME280;57902;49.638;11.070;2023-05-08T08:50:19;98817.13;;;16.44;58.28
70445;BME280;57902;49.638;11.070;2023-05-08T08:53:00;98816.66;;;16.55;58.41
70445;BME280;57902;49.638;11.070;2023-05-08T08:55:29;98810.00;;;16.87;57.96
70445;BME280;57902;49.638;11.070;2023-05-08T08:58:19;98817.44;;;16.76;57.49
70445;BME280;57902;49.638;11.070;2023-05-08T09:00:47;98809.47;;;16.79;57.69
70445;BME280;57902;49.638;11.070;2023-05-08T09:03:15;98812.91;;;16.99;57.19
70445;BME280;57902;49.638;11.070;2023-05-08T09:05:43;98810.00;;;16.87;58.71
70445;BME280;57902;49.638;11.070;2023-05-08T09:08:18;98809.72;;;16.93;56.75
70445;BME280;57902;49.638;11.070;2023-05-08T09:10:45;98816.16;;;16.66;57.53
70445;BME280;57902;49.638;11.070;2023-05-08T09:13:12;98809.63;;;16.76;57.86
70445;BME280;57902;49.638;11.070;2023-05-08T09:15:39;98822.13;;;16.87;57.40
70445;BME280;57902;49.638;11.070;2023-05-08T09:18:06;98814.13;;;16.72;59.38
70445;BME280;57902;49.638;11.070;2023-05-08T09:20:39;98813.38;;;16.89;60.15
70445;BME280;57902;49.638;11.070;2023-05-08T09:23:06;98810.13;;;17.03;58.62
70445;BME280;57902;49.638;11.070;2023-05-08T09:25:44;98818.34;;;17.30;57.25
70445;BME280;57902;49.638;11.070;2023-05-08T09:28:19;98806.34;;;17.45;55.54
70445;BME280;57902;49.638;11.070;2023-05-08T09:33:23;98812.72;;;16.84;57.68
70445;BME280;57902;49.638;11.070;2023-05-08T09:35:50;98812.81;;;16.64;59.29
70445;BME280;57902;49.638;11.070;2023-05-08T09:38:41;98815.88;;;16.72;59.81
70445;BME280;57902;49.638;11.070;2023-05-08T09:41:11;98815.59;;;16.97;60.71
70445;BME280;57902;49.638;11.070;2023-05-08T09:43:42;98814.19;;;16.90;58.29
70445;BME280;57902;49.638;11.070;2023-05-08T09:46:23;98812.81;;;17.02;58.10
70445;BME280;57902;49.638;11.070;2023-05-08T09:48:54;98813.41;;;17.07;58.23
70445;BME280;57902;49.638;11.070;2023-05-08T09:51:22;98815.72;;;17.13;58.94
70445;BME280;57902;49.638;11.070;2023-05-08T09:53:57;98809.25;;;17.03;58.39
70445;BME280;57902;49.638;11.070;2023-05-08T09:56:38;98811.72;;;17.06;58.42
70445;BME280;57902;49.638;11.070;2023-05-08T09:59:25;98817.22;;;17.36;57.94
70445;BME280;57902;49.638;11.070;2023-05-08T10:02:01;98817.69;;;17.44;58.76
70445;BME280;57902;49.638;11.070;2023-05-08T10:04:38;98820.75;;;17.70;55.73
70445;BME280;57902;49.638;11.070;2023-05-08T10:07:05;98818.16;;;17.70;57.25
70445;BME280;57902;49.638;11.070;2023-05-08T10:09:31;98820.84;;;17.69;57.82
70445;BME280;57902;49.638;11.070;2023-05-08T10:12:18;98816.16;;;17.58;58.18
70445;BME280;57902;49.638;11.070;2023-05-08T10:15:09;98813.53;;;17.40;57.96
70445;BME280;57902;49.638;11.070;2023-05-08T10:17:53;98822.03;;;17.44;57.72
70445;BME280;57902;49.638;11.070;2023-05-08T10:20:24;98814.22;;;17.44;56.96
70445;BME280;57902;49.638;11.070;2023-05-08T10:22:55;98818.94;;;17.72;56.16
70445;BME280;57902;49.638;11.070;2023-05-08T10:25:23;98808.59;;;17.53;57.46
70445;BME280;57902;49.638;11.070;2023-05-08T10:30:43;98814.41;;;17.58;57.38
70445;BME280;57902;49.638;11.070;2023-05-08T10:33:16;98815.47;;;17.72;56.95
70445;BME280;57902;49.638;11.070;2023-05-08T10:35:44;98818.78;;;17.75;58.29
70445;BME280;57902;49.638;11.070;2023-05-08T10:38:13;98821.53;;;17.72;56.25
70445;BME280;57902;49.638;11.070;2023-05-08T10:40:40;98813.00;;;17.69;57.63
70445;BME280;57902;49.638;11.070;2023-05-08T10:43:08;98815.44;;;17.89;56.16
70445;BME280;57902;49.638;11.070;2023-05-08T10:45:36;98811.97;;;17.90;56.82
70445;BME280;57902;49.638;11.070;2023-05-08T10:48:38;98817.06;;;17.74;56.40
70445;BME280;57902;49.638;11.070;2023-05-08T10:54:41;98813.72;;;17.72;57.28
70445;BME280;57902;49.638;11.070;2023-05-08T10:57:13;98808.28;;;17.94;57.05
70445;BME280;57902;49.638;11.070;2023-05-08T10:59:44;98815.16;;;17.95;56.80
70445;BME280;57902;49.638;11.070;2023-05-08T11:02:13;98820.00;;;18.03;55.76
70445;BME280;57902;49.638;11.070;2023-05-08T11:04:43;98812.38;;;18.16;56.41
70445;BME280;57902;49.638;11.070;2023-05-08T11:07:10;98811.63;;;18.14;56.16
70445;BME280;57902;49.638;11.070;2023-05-08T11:12:23;98799.78;;;18.24;58.09
70445;BME280;57902;49.638;11.070;2023-05-08T11:14:56;98801.34;;;18.60;55.29
70445;BME280;57902;49.638;11.070;2023-05-08T11:17:25;98803.53;;;18.52;54.68
70445;BME280;57902;49.638;11.070;2023-05-08T11:19:55;98799.81;;;18.56;54.79
70445;BME280;57902;49.638;11.070;2023-05-08T11:22:27;98793.34;;;18.63;55.72
70445;BME280;57902;49.638;11.070;2023-05-08T11:25:13;98795.84;;;18.49;54.99
70445;BME280;57902;49.638;11.070;2023-05-08T11:30:35;98793.25;;;18.65;54.83
70445;BME280;57902;49.638;11.070;2023-05-08T11:38:27;98781.28;;;18.77;53.87
70445;BME280;57902;49.638;11.070;2023-05-08T11:44:19;98788.78;;;18.51;55.78
70445;BME280;57902;49.638;11.070;2023-05-08T11:46:51;98794.09;;;18.65;55.39
70445;BME280;57902;49.638;11.070;2023-05-08T11:49:20;98785.16;;;18.69;55.24
70445;BME280;57902;49.638;11.070;2023-05-08T11:51:57;98787.94;;;18.82;55.04
70445;BME280;57902;49.638;11.070;2023-05-08T11:54:24;98787.19;;;18.96;54.81
70445;BME280;57902;49.638;11.070;2023-05-08T11:56:57;98780.69;;;18.56;55.46
70445;BME280;57902;49.638;11.070;2023-05-08T11:59:57;98783.34;;;18.38;55.68
70445;BME280;57902;49.638;11.070;2023-05-08T12:02:42;98782.97;;;18.46;56.31
70445;BME280;57902;49.638;11.070;2023-05-08T12:05:11;98780.84;;;18.36;57.25
70445;BME280;57902;49.638;11.070;2023-05-08T12:07:47;98781.75;;;18.19;57.02
70445;BME280;57902;49.638;11.070;2023-05-08T12:10:14;98786.75;;;18.07;57.61
70445;BME280;57902;49.638;11.070;2023-05-08T12:12:58;98788.31;;;17.76;58.27
70445;BME280;57902;49.638;11.070;2023-05-08T12:15:25;98783.44;;;18.21;57.77
70445;BME280;57902;49.638;11.070;2023-05-08T12:18:01;98779.16;;;18.35;57.34
70445;BME280;57902;49.638;11.070;2023-05-08T12:20:28;98788.44;;;18.41;56.77
70445;BME280;57902;49.638;11.070;2023-05-08T12:22:56;98785.66;;;18.44;57.98
70445;BME280;57902;49.638;11.070;2023-05-08T12:25:24;98790.03;;;18.44;56.72
70445;BME280;57902;49.638;11.070;2023-05-08T12:27:51;98782.53;;;18.38;56.83
70445;BME280;57902;49.638;11.070;2023-05-08T12:30:17;98790.44;;;18.36;57.29
70445;BME280;57902;49.638;11.070;2023-05-08T12:32:45;98781.75;;;18.19;57.63
70445;BME280;57902;49.638;11.070;2023-05-08T12:35:12;98787.25;;;18.31;58.52
70445;BME280;57902;49.638;11.070;2023-05-08T12:37:39;98783.97;;;18.43;58.88
70445;BME280;57902;49.638;11.070;2023-05-08T12:40:07;98785.75;;;18.43;57.53
70445;BME280;57902;49.638;11.070;2023-05-08T12:42:49;98779.03;;;18.86;57.26
70445;BME280;57902;49.638;11.070;2023-05-08T12:45:27;98786.34;;;19.12;56.20
70445;BME280;57902;49.638;11.070;2023-05-08T12:48:02;98780.94;;;19.15;56.28
70445;BME280;57902;49.638;11.070;2023-05-08T12:50:33;98781.56;;;19.34;55.32
70445;BME280;57902;49.638;11.070;2023-05-08T12:53:05;98781.94;;;19.28;55.77
70445;BME280;57902;49.638;11.070;2023-05-08T12:55:34;98780.97;;;19.29;55.95
70445;BME280;57902;49.638;11.070;2023-05-08T13:00:40;98777.66;;;19.41;54.50
70445;BME280;57902;49.638;11.070;2023-05-08T13:03:23;98781.66;;;19.63;55.79
70445;BME280;57902;49.638;11.070;2023-05-08T13:05:55;98776.66;;;19.58;55.29
70445;BME280;57902;49.638;11.070;2023-05-08T13:08:32;98777.81;;;19.24;54.99
70445;BME280;57902;49.638;11.070;2023-05-08T13:11:01;98776.16;;;19.37;54.38
70445;BME280;57902;49.638;11.070;2023-05-08T13:13:34;98770.25;;;19.64;56.22
70445;BME280;57902;49.638;11.070;2023-05-08T13:16:05;98765.75;;;19.52;55.93
70445;BME280;57902;49.638;11.070;2023-05-08T13:18:32;98769.00;;;19.55;55.11
70445;BME280;57902;49.638;11.070;2023-05-08T13:21:01;98776.41;;;19.77;53.54
70445;BME280;57902;49.638;11.070;2023-05-08T13:23:29;98768.91;;;19.57;55.18
70445;BME280;57902;49.638;11.070;2023-05-08T13:25:55;98760.16;;;19.58;54.42
70445;BME280;57902;49.638;11.070;2023-05-08T13:28:22;98765.25;;;19.15;55.35
70445;BME280;57902;49.638;11.070;2023-05-08T13:31:04;98755.44;;;19.34;56.67
70445;BME280;57902;49.638;11.070;2023-05-08T13:33:30;98756.81;;;19.26;55.31
70445;BME280;57902;49.638;11.070;2023-05-08T13:35:57;98748.88;;;19.27;55.94
70445;BME280;57902;49.638;11.070;2023-05-08T13:38:23;98755.19;;;19.53;53.69
70445;BME280;57902;49.638;11.070;2023-05-08T13:40:50;98743.41;;;19.46;55.44
70445;BME280;57902;49.638;11.070;2023-05-08T13:43:17;98746.41;;;19.54;55.52
70445;BME280;57902;49.638;11.070;2023-05-08T13:45:43;98743.63;;;19.57;54.19
70445;BME280;57902;49.638;11.070;2023-05-08T13:48:10;98742.22;;;19.52;54.76
70445;BME280;57902;49.638;11.070;2023-05-08T13:50:36;98738.91;;;19.34;55.72
70445;BME280;57902;49.638;11.070;2023-05-08T13:53:03;98731.16;;;19.32;55.89
70445;BME280;57902;49.638;11.070;2023-05-08T13:55:30;98737.63;;;19.41;55.09